| Date | Time | Temp. (oF) | Dew Point (oF) | Rel. Hum. (%) | Press. (in.) | Wind Dir. | Wind Speed (mph) | Hourly Rainfall (in.) |
|
|---|---|---|---|---|---|---|---|---|---|
| 1 | 08/28 | 00:00 | 70 | 64 | 83 | 30.13 | SE | 3 | 0.00 |
| 2 | 08/27 | 23:00 | 70 | 64 | 83 | 30.13 | NE | 0 | 0.00 |
| 3 | 08/27 | 22:00 | 72 | 63 | 75 | 30.12 | ENE | 0 | 0.00 |
| 4 | 08/27 | 21:00 | 75 | 63 | 67 | 30.11 | SSE | 0 | 0.00 |
| 5 | 08/27 | 20:00 | 80 | 63 | 57 | 30.08 | SSE | 0 | 0.00 |
| 6 | 08/27 | 19:00 | 83 | 62 | 51 | 30.06 | ESE | 0 | 0.00 |
| 7 | 08/27 | 18:00 | 86 | 61 | 45 | 30.05 | ENE | 0 | 0.00 |
| 8 | 08/27 | 17:00 | 90 | 64 | 43 | 30.06 | ESE | 0 | 0.00 |
| 9 | 08/27 | 16:00 | 89 | 63 | 43 | 30.06 | SE | 0 | 0.00 |
| 10 | 08/27 | 15:00 | 89 | 64 | 44 | 30.08 | SSE | 5 | 0.00 |
| 11 | 08/27 | 14:00 | 88 | 64 | 46 | 30.10 | S | 0 | 0.00 |
| 12 | 08/27 | 13:00 | 88 | 64 | 46 | 30.10 | E | 4 | 0.00 |
| 13 | 08/27 | 12:00 | 87 | 65 | 50 | 30.12 | ENE | 8 | 0.00 |
| 14 | 08/27 | 11:00 | 84 | 64 | 53 | 30.12 | E | 4 | 0.00 |
| 15 | 08/27 | 10:00 | 80 | 67 | 66 | 30.12 | ENE | 3 | 0.00 |
| 16 | 08/27 | 09:00 | 73 | 69 | 90 | 30.12 | SSE | 0 | 0.00 |
| 17 | 08/27 | 08:00 | 67 | 66 | 98 | 30.12 | SE | 0 | 0.00 |
| 18 | 08/27 | 07:00 | 64 | 63 | 97 | 30.11 | NNE | 0 | 0.00 |
| 19 | 08/27 | 06:00 | 65 | 63 | 96 | 30.08 | SSE | 0 | 0.00 |
| 20 | 08/27 | 05:00 | 65 | 63 | 95 | 30.06 | SSE | 0 | 0.00 |
| 21 | 08/27 | 04:00 | 66 | 64 | 94 | 30.04 | SSE | 0 | 0.00 |
| 22 | 08/27 | 03:00 | 67 | 65 | 94 | 30.03 | NNE | 0 | 0.00 |
| 23 | 08/27 | 02:00 | 68 | 65 | 91 | 30.04 | ESE | 0 | 0.00 |
| 24 | 08/27 | 01:00 | 69 | 65 | 90 | 30.03 | S | 0 | 0.00 |